Main page
METAR-TAF:

METAR-TAF

Airports :

Brookhaven Airport

Shirley, New York, United States

latitude: 40-49-18N, longitude: 072-52-08W, elevation: 82 ft

Current weather observation

The report was made 46 minutes ago, at 16:56 UTC
Wind 21 mph from the West with gusts up to 35 mph
Temperature 45°F
Humidity 45%
Pressure 29.47 in. Hg
Visibility: 10 miles
Broken clouds at a height of 4300 ft

METAR: KHWV 271656Z AUTO 28018G30KT 10SM BKN043 07/M04 A2947 RMK AO2 PK WND 30033/1627 SLP978 T00671044 TSNO

Time: 12:42 (17:42 UTC)


TAF: missing

Weather observations and forecasts of more than 4000 airports (METAR and TAF reports).

The available stations are represented by yellow and red dots on the map.

Hover mouse over dot to see the name of the station.

Then click to see weather observations and forecasts.

To change the map : click on the green buttons with a black cross to zoom in, on the green button with a dash to zoom out, or on the green arrows for adjacent maps.


METAR-TAF: